Rosemont, Illinois
Current Conditions -  °F | °C
As of 6:51 AM on Thursday 23 Oct 2014 (Local Time) from KORD Reporting Station
Scattered Clouds Scattered Clouds  
Wind Chill: 30°   Ceiling: Unl
Heat Index: 36°   Visibility: 7mi
Dew Point: 35°   Wind: 8mph
Humidity: 97%   Direction: 180°S
Pressure: 30.21"   Gusts: NA
Location:  42.0188°N, 87.8865°W
Report Text: KORD 231151Z 18007KT 7SM SCT250 02/02 A3021 RMK AO2 SLP235 T00220017 10039 20022 56003 $
Loading
Personal Weather Stations






























Interactive Weather Map
Tropical Storm Tracking
New forecast layout! Learn more

10-Day Weather Forecast

Advertisements
Track Severe Weather on mobile